Time;durP1;ratioP1;P1;durP2;ratioP2;P2;SDS_P1;SDS_P2;PMS_P1;PMS_P2;Temp;Humidity;BMP_temperature;BMP_pressure;BME280_temperature;BME280_humidity;BME280_pressure;Samples;Min_cycle;Max_cycle;Signal;HPM_P1;HPM_P2
2020/06/10 00:04:49;;;;;;;4.3;3.9;;;;;;;13.89;89.875;933.7727;;;;
2020/06/10 00:07:09;;;;;;;4.7;4.3;;;;;;;13.85;90.03906;933.7964;;;;
2020/06/10 00:09:28;;;;;;;4.7;4.3;;;;;;;13.77;90.2998;933.764;;;;
2020/06/10 00:12:02;;;;;;;4.4;4.1;;;;;;;13.79;90.33789;933.7622;;;;
2020/06/10 00:14:18;;;;;;;4.1;3.8;;;;;;;13.8;90.35156;933.7838;;;;
2020/06/10 00:17:18;;;;;;;4.2;3.9;;;;;;;13.82;90.34375;933.7198;;;;
2020/06/10 00:24:19;;;;;;;3.5;3;;;;;;;13.75;90.5127;933.6554;;;;
2020/06/10 00:26:31;;;;;;;2.9;2.7;;;;;;;13.74;90.6377;933.6019;;;;
2020/06/10 00:31:16;;;;;;;2.7;2.4;;;;;;;13.73;90.48633;933.5797;;;;
2020/06/10 00:33:49;;;;;;;2.3;2.1;;;;;;;13.73;90.49512;933.5876;;;;
2020/06/10 00:36:09;;;;;;;2.5;2.3;;;;;;;13.73;90.32324;933.5717;;;;
2020/06/10 00:38:41;;;;;;;2.6;2.4;;;;;;;13.71;90.40137;933.5566;;;;
2020/06/10 00:41:11;;;;;;;2.4;2.2;;;;;;;13.69;90.39844;933.5248;;;;
2020/06/10 00:43:27;;;;;;;2.2;2;;;;;;;13.7;90.49219;933.4895;;;;
2020/06/10 00:45:50;;;;;;;2.2;2;;;;;;;13.73;90.24414;933.5404;;;;
2020/06/10 00:50:47;;;;;;;2.2;2.1;;;;;;;13.71;90.43652;933.4942;;;;
2020/06/10 00:53:31;;;;;;;2;1.9;;;;;;;13.63;90.90234;933.4983;;;;
2020/06/10 00:55:50;;;;;;;2.2;1.7;;;;;;;13.69;90.63965;933.4048;;;;
2020/06/10 00:57:56;;;;;;;1.9;1.8;;;;;;;13.65;90.76855;933.426;;;;
2020/06/10 01:07:52;;;;;;;1.5;1.4;;;;;;;13.53;91.36621;933.5421;;;;
2020/06/10 01:12:45;;;;;;;1.5;1.4;;;;;;;13.48;91.67676;933.4771;;;;
2020/06/10 01:19:48;;;;;;;1.2;1.1;;;;;;;13.38;92.24023;933.3777;;;;
2020/06/10 01:22:13;;;;;;;1.2;1.1;;;;;;;13.46;92.21094;933.3989;;;;
2020/06/10 01:25:26;;;;;;;2.3;1.1;;;;;;;13.52;91.68262;933.3727;;;;
2020/06/10 01:29:36;;;;;;;1.1;1;;;;;;;13.48;91.45605;933.3826;;;;
2020/06/10 01:32:01;;;;;;;1;0.9;;;;;;;13.53;91.38965;933.4045;;;;
2020/06/10 01:34:17;;;;;;;0.9;0.9;;;;;;;13.57;91.26855;933.3713;;;;
2020/06/10 01:37:05;;;;;;;0.9;0.9;;;;;;;13.54;91.30859;933.2324;;;;
2020/06/10 01:39:33;;;;;;;1.1;1;;;;;;;13.61;91.16309;933.2213;;;;
2020/06/10 01:41:57;;;;;;;1;0.9;;;;;;;13.61;90.86426;933.2933;;;;
2020/06/10 01:44:10;;;;;;;1.5;1.1;;;;;;;13.62;91.03613;933.2431;;;;
2020/06/10 01:46:39;;;;;;;1.7;1.4;;;;;;;13.58;91.13281;933.2545;;;;
2020/06/10 01:51:31;;;;;;;2.2;1.6;;;;;;;13.39;91.88574;933.2089;;;;
2020/06/10 01:53:54;;;;;;;3.4;1.8;;;;;;;13.47;91.83398;933.1451;;;;
2020/06/10 01:56:20;;;;;;;2.6;2.1;;;;;;;13.52;91.69629;933.207;;;;
2020/06/10 01:59:20;;;;;;;2.5;2.3;;;;;;;13.53;91.60742;933.2189;;;;
2020/06/10 02:06:15;;;;;;;4.1;2.9;;;;;;;13.45;91.92188;933.1478;;;;
2020/06/10 02:08:25;;;;;;;3.3;3;;;;;;;13.46;92.05078;933.1261;;;;
2020/06/10 02:16:00;;;;;;;4.1;3.7;;;;;;;13.57;91.59082;933.0786;;;;
2020/06/10 02:18:03;;;;;;;4.3;4;;;;;;;13.57;91.52148;933.041;;;;
2020/06/10 02:20:32;;;;;;;4.6;4.2;;;;;;;13.6;91.28809;933.0574;;;;
2020/06/10 02:22:54;;;;;;;5.3;4.8;;;;;;;13.61;91.33594;933.0094;;;;
2020/06/10 02:25:20;;;;;;;5.3;4.8;;;;;;;13.57;91.61328;933.0546;;;;
2020/06/10 02:27:55;;;;;;;5.4;4.9;;;;;;;13.61;91.56543;933.0494;;;;
2020/06/10 02:30:20;;;;;;;6;5.5;;;;;;;13.64;91.33008;933.0549;;;;
2020/06/10 02:33:23;;;;;;;6.1;5.5;;;;;;;13.62;91.21094;933.0767;;;;
2020/06/10 02:35:03;;;;;;;6.5;5.9;;;;;;;13.62;91.09375;933.0687;;;;
2020/06/10 02:37:29;;;;;;;6.5;5.9;;;;;;;13.54;91.53906;933.0109;;;;
2020/06/10 02:39:59;;;;;;;7;6.4;;;;;;;13.52;91.68457;933.0406;;;;
2020/06/10 02:42:20;;;;;;;7.6;6.8;;;;;;;13.57;91.74023;933.0561;;;;
2020/06/10 02:47:27;;;;;;;8.9;8.1;;;;;;;13.48;91.87207;933.0291;;;;
2020/06/10 02:49:49;;;;;;;9.8;8.9;;;;;;;13.45;92.20996;933.0165;;;;
2020/06/10 02:52:17;;;;;;;9.9;9;;;;;;;13.47;92.23828;933.0084;;;;
2020/06/10 02:54:34;;;;;;;11.2;10.1;;;;;;;13.54;91.92969;933.0269;;;;
2020/06/10 02:57:01;;;;;;;10.9;9.8;;;;;;;13.56;91.75;932.949;;;;
2020/06/10 03:02:02;;;;;;;12.8;11.6;;;;;;;13.59;91.50195;933.0367;;;;
2020/06/10 03:04:28;;;;;;;13;11.8;;;;;;;13.6;91.51563;933.0424;;;;
2020/06/10 03:06:53;;;;;;;13.6;12.3;;;;;;;13.57;91.26855;933.0666;;;;
2020/06/10 03:09:29;;;;;;;13.3;12;;;;;;;13.57;91.38379;933.0034;;;;
2020/06/10 03:16:47;;;;;;;13.9;12.5;;;;;;;13.47;92.06348;932.9428;;;;
2020/06/10 03:19:16;;;;;;;14.7;13.2;;;;;;;13.35;92.39746;932.9285;;;;
2020/06/10 03:21:19;;;;;;;15.3;13.7;;;;;;;13.39;92.66895;932.9825;;;;
2020/06/10 03:23:46;;;;;;;14.3;12.9;;;;;;;13.47;92.07715;932.986;;;;
2020/06/10 03:26:11;;;;;;;14;12.7;;;;;;;13.51;91.80664;932.9928;;;;
2020/06/10 03:28:38;;;;;;;15.8;14.2;;;;;;;13.51;91.52148;932.968;;;;
2020/06/10 03:31:15;;;;;;;15.7;14.1;;;;;;;13.55;91.51758;932.9844;;;;
2020/06/10 03:33:34;;;;;;;16.5;14.3;;;;;;;13.58;91.23828;933.0392;;;;
2020/06/10 03:38:24;;;;;;;16;14.4;;;;;;;13.62;91.06152;933.0079;;;;
2020/06/10 03:40:59;;;;;;;16.2;14.6;;;;;;;13.65;91.16895;933.0069;;;;
2020/06/10 03:48:05;;;;;;;17.3;14.4;;;;;;;13.67;90.97852;933.0058;;;;
2020/06/10 03:50:36;;;;;;;15.4;13;;;;;;;13.66;90.96777;933.0083;;;;
2020/06/10 03:52:58;;;;;;;16.6;11.7;;;;;;;13.69;90.86914;933.0048;;;;
2020/06/10 03:55:57;;;;;;;14.9;11.3;;;;;;;13.68;90.86621;933.0089;;;;
2020/06/10 03:57:51;;;;;;;13;10.3;;;;;;;13.68;91.00391;932.9681;;;;
2020/06/10 04:00:21;;;;;;;10.8;9.5;;;;;;;13.67;90.99023;932.9458;;;;
2020/06/10 04:02:56;;;;;;;9.8;8.7;;;;;;;13.68;90.81055;932.9297;;;;
2020/06/10 04:06:01;;;;;;;9.1;8.2;;;;;;;13.57;91.28027;932.9601;;;;
2020/06/10 04:07:57;;;;;;;9.8;8.6;;;;;;;13.62;91.22266;932.9535;;;;
2020/06/10 04:10:17;;;;;;;10.2;8.8;;;;;;;13.63;91.28027;932.9127;;;;
2020/06/10 04:12:45;;;;;;;10.8;9.2;;;;;;;13.62;91.31445;932.9608;;;;
2020/06/10 04:15:20;;;;;;;8.8;7.9;;;;;;;13.61;91.25488;932.9849;;;;
2020/06/10 04:17:37;;;;;;;8.5;7.7;;;;;;;13.62;91.42969;932.9967;;;;
2020/06/10 04:25:10;;;;;;;9.4;7.9;;;;;;;13.55;91.49707;933.0011;;;;
2020/06/10 04:27:36;;;;;;;8;7.2;;;;;;;13.6;91.59766;933.0375;;;;
2020/06/10 04:34:44;;;;;;;6.8;6;;;;;;;13.46;91.86621;932.9902;;;;
2020/06/10 04:39:55;;;;;;;6.3;5.7;;;;;;;13.57;91.80859;932.9889;;;;
2020/06/10 04:42:10;;;;;;;5.9;5.3;;;;;;;13.51;91.74023;932.992;;;;
2020/06/10 04:44:26;;;;;;;5.9;5.3;;;;;;;13.62;91.54199;933.0215;;;;
2020/06/10 04:46:52;;;;;;;5.9;5.3;;;;;;;13.7;91.19141;933.0047;;;;
2020/06/10 04:49:21;;;;;;;5.9;5.3;;;;;;;13.76;90.90527;932.972;;;;
2020/06/10 04:52:47;;;;;;;6.7;5.6;;;;;;;13.8;90.5332;932.9531;;;;
2020/06/10 04:54:12;;;;;;;6.4;5.8;;;;;;;13.73;90.75977;933.0051;;;;
2020/06/10 04:57:21;;;;;;;6.6;5.9;;;;;;;13.83;90.66797;933.0259;;;;
2020/06/10 05:02:04;;;;;;;6.9;6.2;;;;;;;13.86;90.3418;933.0167;;;;
2020/06/10 05:03:52;;;;;;;6.7;6.1;;;;;;;13.85;90.35156;933.048;;;;
2020/06/10 05:06:24;;;;;;;7.1;6.4;;;;;;;13.92;89.88086;933.072;;;;
2020/06/10 05:11:24;;;;;;;7.7;7;;;;;;;13.95;89.99023;933.111;;;;
2020/06/10 05:13:55;;;;;;;7.1;6.4;;;;;;;13.96;89.92285;933.1149;;;;
2020/06/10 05:18:39;;;;;;;6.8;6.2;;;;;;;14.02;89.36035;933.0472;;;;
2020/06/10 05:28:19;;;;;;;7;6.3;;;;;;;13.92;89.48926;933.0408;;;;
2020/06/10 05:30:36;;;;;;;7.3;6.6;;;;;;;13.89;89.71289;933.0172;;;;
2020/06/10 05:33:01;;;;;;;7.7;6.9;;;;;;;13.98;89.76758;933.0833;;;;
2020/06/10 05:35:33;;;;;;;7.6;6.7;;;;;;;14.02;89.0957;933.0696;;;;
2020/06/10 05:38:01;;;;;;;7.4;6.7;;;;;;;14.03;88.84277;932.9526;;;;
2020/06/10 05:40:30;;;;;;;7.2;6.5;;;;;;;14.03;88.68359;933.003;;;;
2020/06/10 05:42:57;;;;;;;7.5;6.6;;;;;;;13.93;88.9873;932.9358;;;;
2020/06/10 05:45:17;;;;;;;7.1;6.4;;;;;;;13.92;89.27148;932.9736;;;;
2020/06/10 05:52:32;;;;;;;6.4;5.8;;;;;;;14.16;88.14648;932.9701;;;;
2020/06/10 05:55:33;;;;;;;7.1;6.4;;;;;;;14.05;88.65234;932.9306;;;;
2020/06/10 05:57:41;;;;;;;6.2;5.6;;;;;;;14.15;88.22559;932.9374;;;;
2020/06/10 05:59:52;;;;;;;6.6;6;;;;;;;14.16;88.20215;932.9869;;;;
2020/06/10 06:09:35;;;;;;;6.6;5.9;;;;;;;14.3;88.02441;932.9102;;;;
2020/06/10 06:12:01;;;;;;;6.8;6.2;;;;;;;14.27;87.83496;932.9001;;;;
2020/06/10 06:14:22;;;;;;;7.1;6.2;;;;;;;14.27;87.75195;932.8529;;;;
2020/06/10 06:17:00;;;;;;;6.7;6.1;;;;;;;14.34;88.04492;932.8895;;;;
2020/06/10 06:19:15;;;;;;;6.6;6;;;;;;;14.47;87.72266;932.8315;;;;
2020/06/10 06:21:42;;;;;;;6.7;6.1;;;;;;;14.63;86.96191;932.8117;;;;
2020/06/10 06:24:10;;;;;;;6.4;5.8;;;;;;;14.66;86.8291;932.8106;;;;
2020/06/10 06:26:29;;;;;;;6.1;5.6;;;;;;;14.75;86.20313;932.8596;;;;
2020/06/10 06:28:57;;;;;;;6.8;6.2;;;;;;;14.76;85.91504;932.8226;;;;
2020/06/10 06:31:29;;;;;;;6.7;6.1;;;;;;;14.87;85.91309;932.8195;;;;
2020/06/10 06:33:44;;;;;;;6.2;5.6;;;;;;;14.94;84.80859;932.7671;;;;
2020/06/10 06:38:35;;;;;;;6.6;6.1;;;;;;;15.03;84.75684;932.834;;;;
2020/06/10 06:41:11;;;;;;;5.9;5.4;;;;;;;15.07;84.1875;932.7573;;;;
2020/06/10 06:43:36;;;;;;;5.8;5.3;;;;;;;15.27;83.61523;932.7164;;;;
2020/06/10 06:55:38;;;;;;;5.9;5.4;;;;;;;15.58;82.06836;932.8636;;;;
2020/06/10 06:58:03;;;;;;;5.8;5.3;;;;;;;15.33;82.14844;932.8702;;;;
2020/06/10 07:00:39;;;;;;;6.2;5.6;;;;;;;14.91;83.98438;932.8052;;;;
2020/06/10 07:03:03;;;;;;;7.1;6.5;;;;;;;15.02;84.58105;932.8889;;;;
2020/06/10 07:12:50;;;;;;;7.2;6.5;;;;;;;14.95;84.92383;932.941;;;;
2020/06/10 07:15:24;;;;;;;6.9;6.3;;;;;;;14.67;86.47363;933.0067;;;;
2020/06/10 07:17:52;;;;;;;6.1;5.5;;;;;;;14.86;85.73828;933.0073;;;;
2020/06/10 07:21:38;;;;;;;5.8;5.3;;;;;;;14.89;85.79199;932.9819;;;;
2020/06/10 07:23:34;;;;;;;5.4;4.9;;;;;;;15;85.32715;933.0156;;;;
2020/06/10 07:25:29;;;;;;;5.4;4.5;;;;;;;15.25;85.12207;933.048;;;;
2020/06/10 07:27:52;;;;;;;5.5;5;;;;;;;15.33;83.90332;932.993;;;;
2020/06/10 07:35:24;;;;;;;5.4;4.9;;;;;;;15.61;81.94824;933.0616;;;;
2020/06/10 07:37:57;;;;;;;5.9;5.4;;;;;;;15.68;81.92578;933.0413;;;;
2020/06/10 07:45:08;;;;;;;6.6;6;;;;;;;15.6;82.89258;933.028;;;;
2020/06/10 07:47:25;;;;;;;7;6.4;;;;;;;15.66;83.82813;933.032;;;;
2020/06/10 07:52:35;;;;;;;6.7;5.8;;;;;;;15.61;83.55273;933.0608;;;;
2020/06/10 07:57:26;;;;;;;6.7;6.1;;;;;;;15.84;83.17969;933.1398;;;;
2020/06/10 07:59:43;;;;;;;6.8;6.2;;;;;;;15.95;83.27148;933.0212;;;;
2020/06/10 08:02:33;;;;;;;7.3;6.6;;;;;;;15.98;82.81348;933.0648;;;;
2020/06/10 08:04:31;;;;;;;7.5;6.8;;;;;;;15.91;82.74219;933.0084;;;;
2020/06/10 08:07:47;;;;;;;7.4;6.7;;;;;;;15.94;82.54102;932.9644;;;;
2020/06/10 08:09:40;;;;;;;7.6;6.9;;;;;;;15.95;82.17285;933.0517;;;;
2020/06/10 08:12:05;;;;;;;7.1;6.5;;;;;;;15.91;82.04883;933.088;;;;
2020/06/10 08:14:09;;;;;;;7.4;6.7;;;;;;;15.92;82.89648;933.0547;;;;
2020/06/10 08:16:42;;;;;;;7.1;6.4;;;;;;;15.96;82.40527;933.1102;;;;
2020/06/10 08:19:06;;;;;;;7.3;6.6;;;;;;;16.1;82.28125;933.1166;;;;
2020/06/10 08:24:01;;;;;;;7.2;6.5;;;;;;;16.14;81.76855;933.0803;;;;
2020/06/10 08:26:56;;;;;;;6.4;5.8;;;;;;;16.09;81.34277;933.0942;;;;
2020/06/10 08:31:16;;;;;;;7.1;6.4;;;;;;;16.15;81.21387;933.0867;;;;
2020/06/10 08:33:42;;;;;;;6.3;5.8;;;;;;;15.95;81.54883;933.0758;;;;
2020/06/10 08:36:09;;;;;;;5.1;4.6;;;;;;;15.91;81.56348;933.1119;;;;
2020/06/10 08:38:49;;;;;;;5.1;4.6;;;;;;;15.88;81.78906;933.1014;;;;
2020/06/10 08:41:04;;;;;;;4.8;4;;;;;;;16;81.41992;933.0355;;;;
2020/06/10 08:46:21;;;;;;;4;3.5;;;;;;;16.15;80.67188;933.0969;;;;
2020/06/10 08:48:13;;;;;;;3.7;3.3;;;;;;;16.06;80.26172;933.0458;;;;
2020/06/10 08:50:37;;;;;;;3.1;2.8;;;;;;;16.17;80.0625;933.0653;;;;
2020/06/10 08:56:28;;;;;;;3.6;3.1;;;;;;;16.31;80.27344;932.9453;;;;
2020/06/10 09:01:27;;;;;;;3.3;3;;;;;;;16.05;81.35938;932.9384;;;;
2020/06/10 09:05:27;;;;;;;2.7;2.5;;;;;;;16.51;80.11133;932.9158;;;;
2020/06/10 09:07:51;;;;;;;2.7;2.5;;;;;;;16.7;77.99414;932.9539;;;;
2020/06/10 09:12:50;;;;;;;3.5;3.1;;;;;;;16.5;80.45898;932.8354;;;;
2020/06/10 09:15:12;;;;;;;5;3.3;;;;;;;16.7;80.78516;932.7897;;;;
2020/06/10 09:18:29;;;;;;;3.1;2.8;;;;;;;16.65;78.45898;932.785;;;;
2020/06/10 09:25:07;;;;;;;2.9;2.6;;;;;;;16.86;77.69727;932.7317;;;;
2020/06/10 09:27:16;;;;;;;3;2.7;;;;;;;17;78.13965;932.6454;;;;
2020/06/10 09:29:37;;;;;;;2.5;2.3;;;;;;;17.13;77.82715;932.6908;;;;
2020/06/10 09:32:05;;;;;;;2.8;2.6;;;;;;;17.29;76.54492;932.6195;;;;
2020/06/10 09:36:08;;;;;;;3.2;2.9;;;;;;;17.41;77.19238;932.6278;;;;
2020/06/10 09:37:03;;;;;;;2.9;2.7;;;;;;;17.47;76.1582;932.6176;;;;
2020/06/10 09:39:34;;;;;;;3.2;2.9;;;;;;;17.66;77.15625;932.5936;;;;
2020/06/10 09:54:01;;;;;;;3.3;2.7;;;;;;;17.66;76.13477;932.5508;;;;
2020/06/10 09:56:27;;;;;;;3.4;3.1;;;;;;;17.54;75.62598;932.5041;;;;
2020/06/10 09:58:54;;;;;;;3.3;3;;;;;;;17.44;77.32324;932.5719;;;;
2020/06/10 10:03:58;;;;;;;3.4;2.5;;;;;;;17.06;76.2832;932.5488;;;;
2020/06/10 10:07:32;;;;;;;3.1;2.8;;;;;;;16.91;77.39355;932.5447;;;;
2020/06/10 10:10:59;;;;;;;4.1;2.7;;;;;;;16.89;78.01563;932.5413;;;;
2020/06/10 10:13:32;;;;;;;3;2.8;;;;;;;17.09;77.59766;932.437;;;;
2020/06/10 10:15:51;;;;;;;3.2;2.9;;;;;;;17.15;76.91504;932.4113;;;;
2020/06/10 10:21:13;;;;;;;2.2;2;;;;;;;17.28;74.45605;932.3317;;;;
2020/06/10 10:23:05;;;;;;;5;2.9;;;;;;;17.32;75.03027;932.3058;;;;
2020/06/10 10:25:33;;;;;;;2.6;2.4;;;;;;;17.46;74.41699;932.3;;;;
2020/06/10 10:27:57;;;;;;;6.3;5.2;;;;;;;17.52;72.62891;932.3096;;;;
2020/06/10 10:32:49;;;;;;;3;2;;;;;;;17.25;74.13672;932.3455;;;;
2020/06/10 10:37:46;;;;;;;2.5;2.2;;;;;;;17.31;73.3125;932.3189;;;;
2020/06/10 10:42:27;;;;;;;2.8;2.2;;;;;;;17.24;77.20703;932.4247;;;;
2020/06/10 10:44:56;;;;;;;2.5;2.3;;;;;;;17.45;77.4541;932.2786;;;;
2020/06/10 10:50:04;;;;;;;5.9;2.8;;;;;;;17.74;76.03125;932.2719;;;;
2020/06/10 10:52:24;;;;;;;3.6;2.5;;;;;;;17.91;73.44824;932.2353;;;;
2020/06/10 10:54:51;;;;;;;2.6;2.4;;;;;;;18.17;73.50293;932.1604;;;;
2020/06/10 10:59:28;;;;;;;2.1;1.9;;;;;;;18.26;72.13574;932.2346;;;;
2020/06/10 11:02:02;;;;;;;2.4;2.2;;;;;;;18.26;73.13379;932.1824;;;;
2020/06/10 11:04:21;;;;;;;3.4;2.2;;;;;;;18.27;71.14941;932.2141;;;;
2020/06/10 11:09:09;;;;;;;3.2;2.5;;;;;;;18.27;72.2998;932.1174;;;;
2020/06/10 11:11:41;;;;;;;2.6;2.4;;;;;;;18.33;73.4248;932.0867;;;;
2020/06/10 11:16:27;;;;;;;3.2;2.8;;;;;;;18.35;72.30176;932.115;;;;
2020/06/10 11:18:50;;;;;;;2.9;2.4;;;;;;;18.34;72.40332;932.0895;;;;
2020/06/10 11:24:21;;;;;;;4.6;3.1;;;;;;;18.18;72.2832;932.1512;;;;
2020/06/10 11:26:09;;;;;;;3.9;3.1;;;;;;;18.42;71.05664;932.1589;;;;
2020/06/10 11:28:38;;;;;;;3.1;2.8;;;;;;;18.51;70.7334;932.1894;;;;
2020/06/10 11:30:53;;;;;;;3.9;2.8;;;;;;;18.63;71.16113;932.1984;;;;
2020/06/10 11:33:16;;;;;;;2.8;2.5;;;;;;;18.76;68.54004;932.1089;;;;
2020/06/10 11:35:49;;;;;;;2.9;2.6;;;;;;;18.74;68.68848;932.1077;;;;
2020/06/10 11:38:21;;;;;;;3.7;2.9;;;;;;;18.72;70.60547;932.1116;;;;
2020/06/10 11:40:43;;;;;;;3.5;3;;;;;;;18.73;70.25684;932.0769;;;;
2020/06/10 11:45:32;;;;;;;4;2.8;;;;;;;18.86;68.64844;932.1384;;;;
2020/06/10 11:50:24;;;;;;;5;2.8;;;;;;;19.04;68.17676;932.0809;;;;
2020/06/10 11:52:45;;;;;;;3.7;2.7;;;;;;;18.98;67.99219;932.0899;;;;
2020/06/10 11:55:13;;;;;;;3;2.7;;;;;;;18.83;67.53906;932.0739;;;;
2020/06/10 11:57:38;;;;;;;2.9;2.5;;;;;;;18.94;67.26465;932.0938;;;;
2020/06/10 12:05:16;;;;;;;2.8;2.4;;;;;;;18.72;67.21973;932.0906;;;;
2020/06/10 12:10:07;;;;;;;3.2;2.5;;;;;;;18.42;68.73145;932.0799;;;;
2020/06/10 12:14:56;;;;;;;4.4;3.1;;;;;;;18.29;69.26953;932.02;;;;
2020/06/10 12:19:37;;;;;;;5;3.1;;;;;;;18.16;68.92383;931.9786;;;;
2020/06/10 12:29:10;;;;;;;3.4;2.7;;;;;;;18.5;68.91797;931.9149;;;;
2020/06/10 12:31:36;;;;;;;2.8;2.6;;;;;;;18.8;67.59277;931.8647;;;;
2020/06/10 12:36:26;;;;;;;3.1;2.8;;;;;;;19.28;67.02539;931.8478;;;;
2020/06/10 12:39:05;;;;;;;4.2;2.6;;;;;;;19.43;66.40723;931.8416;;;;
2020/06/10 12:41:38;;;;;;;4.5;3.3;;;;;;;19.55;64.49121;931.8423;;;;
2020/06/10 12:45:27;;;;;;;3.2;2.9;;;;;;;19.67;64.68359;931.827;;;;
2020/06/10 12:46:31;;;;;;;4;3.2;;;;;;;19.74;67.28125;931.8254;;;;
2020/06/10 12:48:52;;;;;;;4.1;2.8;;;;;;;19.6;65.06934;931.7963;;;;
2020/06/10 12:51:16;;;;;;;4.1;2.8;;;;;;;19.69;64.09277;931.785;;;;
2020/06/10 12:53:37;;;;;;;2.8;2.5;;;;;;;19.84;63.87988;931.7444;;;;
2020/06/10 12:58:18;;;;;;;3.7;2.8;;;;;;;19.45;64.50977;931.6566;;;;
2020/06/10 13:05:42;;;;;;;3.5;2.1;;;;;;;19.6;62.35254;931.7186;;;;
2020/06/10 13:08:08;;;;;;;3.4;2.4;;;;;;;19.79;62.34375;931.6767;;;;
2020/06/10 13:10:27;;;;;;;2.8;2.1;;;;;;;19.97;62.77832;931.6936;;;;
2020/06/10 13:13:57;;;;;;;3.3;2.3;;;;;;;19.89;62.47559;931.6853;;;;
2020/06/10 13:15:36;;;;;;;4;2.5;;;;;;;19.81;63.94531;931.7282;;;;
2020/06/10 13:20:07;;;;;;;3;2.7;;;;;;;19.46;65.28027;931.7452;;;;
2020/06/10 13:23:04;;;;;;;2.9;2.5;;;;;;;19.13;65.83984;931.7453;;;;
2020/06/10 13:25:17;;;;;;;3.1;2.8;;;;;;;18.64;68.04395;931.7418;;;;
2020/06/10 13:27:23;;;;;;;5.9;3.1;;;;;;;18.3;69.89844;931.7667;;;;
2020/06/10 13:32:11;;;;;;;3.4;3.1;;;;;;;17.78;73.43848;931.7885;;;;
2020/06/10 13:34:40;;;;;;;6.3;3.9;;;;;;;17.4;76.07813;931.7361;;;;
2020/06/10 13:39:33;;;;;;;5.7;4.3;;;;;;;17.21;77.62012;931.8159;;;;
2020/06/10 13:49:15;;;;;;;6.5;4.1;;;;;;;16.95;78.32813;931.8022;;;;
2020/06/10 13:51:44;;;;;;;4.1;3.7;;;;;;;16.97;77.36035;931.7509;;;;
2020/06/10 13:54:11;;;;;;;5.7;4;;;;;;;16.83;77.77344;931.6847;;;;
2020/06/10 13:56:33;;;;;;;4.4;3.8;;;;;;;16.78;78.30762;931.7145;;;;
2020/06/10 13:59:06;;;;;;;6;4.2;;;;;;;16.67;78.86914;931.6658;;;;
2020/06/10 14:04:08;;;;;;;5.5;3.9;;;;;;;16.36;80.50195;931.7198;;;;
2020/06/10 14:16:24;;;;;;;7;4.7;;;;;;;16.66;82.17969;931.6689;;;;
2020/06/10 14:18:32;;;;;;;6.5;5;;;;;;;16.59;81.40137;931.7459;;;;
2020/06/10 14:21:04;;;;;;;6.9;5.6;;;;;;;16.68;81.34766;931.75;;;;
2020/06/10 14:23:39;;;;;;;7.1;5.1;;;;;;;16.73;80.99805;931.711;;;;
2020/06/10 14:25:48;;;;;;;5.8;4.8;;;;;;;16.54;80.70996;931.8097;;;;
2020/06/10 14:30:36;;;;;;;5.8;4.5;;;;;;;16.37;82.3916;931.8127;;;;
2020/06/10 14:33:08;;;;;;;5.5;4.6;;;;;;;16.37;81.83594;931.774;;;;
2020/06/10 14:36:47;;;;;;;6.3;5.4;;;;;;;16.45;82.10352;931.8506;;;;
2020/06/10 14:42:56;;;;;;;5.3;4.7;;;;;;;16.25;81.16602;931.8259;;;;
2020/06/10 14:45:11;;;;;;;5.8;5.2;;;;;;;16.13;81.49121;931.8724;;;;
2020/06/10 14:50:28;;;;;;;6.9;5.7;;;;;;;16.05;82.07422;931.8334;;;;
2020/06/10 14:55:30;;;;;;;6.5;5.4;;;;;;;16.04;82.69727;931.9316;;;;
2020/06/10 14:57:31;;;;;;;8.8;6.4;;;;;;;15.96;83.81641;931.9241;;;;
2020/06/10 14:59:42;;;;;;;6;5.4;;;;;;;15.59;84.55176;931.8639;;;;
2020/06/10 15:02:12;;;;;;;8.4;7.6;;;;;;;15.53;85.47754;931.8928;;;;
2020/06/10 15:04:27;;;;;;;8.4;7.1;;;;;;;15.4;86.20313;931.8701;;;;
2020/06/10 15:06:59;;;;;;;9.5;7.5;;;;;;;15.29;87.02441;931.91;;;;
2020/06/10 15:09:24;;;;;;;7.8;7;;;;;;;15.43;86.55469;931.9606;;;;
2020/06/10 15:11:54;;;;;;;6.6;6;;;;;;;15.33;86.22559;931.9604;;;;
2020/06/10 15:14:29;;;;;;;6.9;6;;;;;;;15.4;86.22559;931.875;;;;
2020/06/10 15:19:07;;;;;;;7.3;6.6;;;;;;;15.49;85.06543;931.9024;;;;
2020/06/10 15:21:37;;;;;;;8.1;6.5;;;;;;;15.42;85.92969;931.9294;;;;
2020/06/10 15:23:59;;;;;;;8.8;6.4;;;;;;;15.32;86.68359;931.9849;;;;
2020/06/10 15:26:22;;;;;;;6.1;5;;;;;;;15.16;86.87207;931.9402;;;;
2020/06/10 15:29:05;;;;;;;7.4;5.2;;;;;;;15.16;87.31055;931.8784;;;;
2020/06/10 15:34:12;;;;;;;6.6;5.9;;;;;;;15.1;87.1582;931.9991;;;;
2020/06/10 15:36:21;;;;;;;7.6;6.3;;;;;;;14.91;87.08691;932.0517;;;;
2020/06/10 15:39:02;;;;;;;9.1;7;;;;;;;14.87;88.30078;932.0869;;;;
2020/06/10 15:40:52;;;;;;;8.7;7.1;;;;;;;14.9;87.79883;932.0977;;;;
2020/06/10 15:43:27;;;;;;;8.3;6.7;;;;;;;14.97;87.25977;932.0267;;;;
2020/06/10 15:48:18;;;;;;;7.8;6.1;;;;;;;14.9;88.73438;932.055;;;;
2020/06/10 15:50:40;;;;;;;7.8;6.6;;;;;;;14.89;89.5498;932.1011;;;;
2020/06/10 16:00:19;;;;;;;8.7;6;;;;;;;14.82;89.46777;932.01;;;;
2020/06/10 16:07:37;;;;;;;7.9;6.1;;;;;;;14.77;89.62988;931.9561;;;;
2020/06/10 16:10:05;;;;;;;6.7;6.1;;;;;;;14.78;89.29688;932.0153;;;;
2020/06/10 16:19:43;;;;;;;6.9;6.2;;;;;;;14.74;89.07031;932.1994;;;;
2020/06/10 16:22:07;;;;;;;8.4;6.7;;;;;;;14.72;89.71094;932.1789;;;;
2020/06/10 16:24:34;;;;;;;8.6;6.8;;;;;;;14.66;89.88379;932.159;;;;
2020/06/10 16:26:59;;;;;;;9.9;8.8;;;;;;;14.59;90.3418;932.1663;;;;
2020/06/10 16:34:16;;;;;;;11.7;10.2;;;;;;;14.59;89.73047;932.2191;;;;
2020/06/10 16:36:36;;;;;;;12.1;10.9;;;;;;;14.61;90.19727;932.1811;;;;
2020/06/10 16:39:02;;;;;;;14.7;12.7;;;;;;;14.57;89.95703;932.1707;;;;
2020/06/10 16:42:04;;;;;;;12.1;10.2;;;;;;;14.56;90.09375;932.1443;;;;
2020/06/10 16:43:53;;;;;;;6.5;5.5;;;;;;;14.72;89.86035;932.0547;;;;
2020/06/10 16:46:27;;;;;;;6.1;5.1;;;;;;;14.72;88.85742;932.0939;;;;
2020/06/10 16:48:42;;;;;;;6.5;5.5;;;;;;;14.67;89.2041;932.0524;;;;
2020/06/10 16:51:11;;;;;;;7.4;6.7;;;;;;;14.47;89.62598;932.0809;;;;
2020/06/10 16:53:35;;;;;;;7.3;6.6;;;;;;;14.47;89.87891;932.1258;;;;
2020/06/10 16:56:58;;;;;;;8.5;7.7;;;;;;;14.37;90.37695;932.1227;;;;
2020/06/10 16:58:34;;;;;;;9.6;8.7;;;;;;;14.36;91.06641;932.1612;;;;
2020/06/10 17:00:47;;;;;;;10.8;8.6;;;;;;;14.44;90.92188;932.1301;;;;
2020/06/10 17:05:53;;;;;;;9.2;8.3;;;;;;;14.44;90.19629;932.1005;;;;
2020/06/10 17:08:06;;;;;;;9.2;8.3;;;;;;;14.43;90.33301;932.1501;;;;
2020/06/10 17:10:43;;;;;;;10.3;8.8;;;;;;;14.36;91.10059;932.1316;;;;
2020/06/10 17:13:01;;;;;;;10.2;9.1;;;;;;;14.44;90.78418;932.1453;;;;
2020/06/10 17:18:01;;;;;;;10;9;;;;;;;14.51;90.31348;932.1603;;;;
2020/06/10 17:20:26;;;;;;;8.4;7.6;;;;;;;14.44;89.70117;932.1309;;;;
2020/06/10 17:28:16;;;;;;;10.6;9.6;;;;;;;14.4;90.58984;932.1711;;;;
2020/06/10 17:35:05;;;;;;;9.9;8.9;;;;;;;14.43;90.48242;932.1174;;;;
2020/06/10 17:37:39;;;;;;;10.3;9.2;;;;;;;14.38;90.36719;932.0632;;;;
2020/06/10 17:40:14;;;;;;;10.3;9;;;;;;;14.3;91.14551;932.0892;;;;
2020/06/10 17:44:42;;;;;;;7.5;6.7;;;;;;;14.14;90.90625;932.0135;;;;
2020/06/10 17:47:08;;;;;;;7.7;7;;;;;;;14.15;91.49512;931.991;;;;
2020/06/10 17:54:26;;;;;;;11.8;9.3;;;;;;;14.15;91.21875;932.0101;;;;
2020/06/10 18:04:11;;;;;;;5.5;4.4;;;;;;;14.23;88.10352;932.0598;;;;
2020/06/10 18:09:16;;;;;;;7;4.5;;;;;;;14.15;89.00879;932.027;;;;
2020/06/10 18:16:14;;;;;;;4.2;3.5;;;;;;;14.14;89.375;932.1409;;;;
2020/06/10 18:18:48;;;;;;;4.7;3.8;;;;;;;14.16;87.76465;932.2006;;;;
2020/06/10 18:23:26;;;;;;;6.5;4;;;;;;;14.09;88.28027;932.0744;;;;
2020/06/10 18:26:07;;;;;;;5.7;3.7;;;;;;;14.09;87.78809;932.1311;;;;
2020/06/10 18:28:40;;;;;;;4.5;3.7;;;;;;;14.15;86.75195;932.12;;;;
2020/06/10 18:32:29;;;;;;;2.8;2.2;;;;;;;14.05;86.47656;932.1013;;;;
2020/06/10 18:33:16;;;;;;;4.6;2.4;;;;;;;13.96;87.03418;932.0575;;;;
2020/06/10 18:38:16;;;;;;;5.9;3.8;;;;;;;13.74;88.03809;932.0648;;;;
2020/06/10 18:40:34;;;;;;;6.4;4.1;;;;;;;13.74;87.95703;932.0296;;;;
2020/06/10 18:42:56;;;;;;;5.7;3.9;;;;;;;13.78;88.40332;932.0451;;;;
2020/06/10 18:45:28;;;;;;;5;3.4;;;;;;;13.52;88.32715;932.0664;;;;
2020/06/10 18:47:50;;;;;;;4.9;3.2;;;;;;;13.47;89.4541;932.0767;;;;
2020/06/10 18:50:15;;;;;;;2.9;1.7;;;;;;;13.49;89.44629;932.0684;;;;
2020/06/10 18:53:00;;;;;;;3.5;1.7;;;;;;;13.39;89.82813;932.0109;;;;
2020/06/10 18:55:05;;;;;;;2.7;1.5;;;;;;;13.37;89.62988;932.1103;;;;
2020/06/10 19:00:02;;;;;;;2.1;1.4;;;;;;;13.38;88.44922;932.0765;;;;
2020/06/10 19:02:28;;;;;;;1.9;1.1;;;;;;;13.28;88.69141;932.1249;;;;
2020/06/10 19:04:51;;;;;;;2.7;1.8;;;;;;;13.26;88.72266;932.1619;;;;
2020/06/10 19:07:35;;;;;;;6.4;2.3;;;;;;;13.2;89.82422;932.1606;;;;
2020/06/10 19:09:37;;;;;;;2.3;1.3;;;;;;;13.08;87.87012;932.1655;;;;
2020/06/10 19:12:02;;;;;;;2.6;1.3;;;;;;;12.89;88.7832;932.1887;;;;
2020/06/10 19:19:20;;;;;;;2.7;1.3;;;;;;;12.93;89.0791;932.2411;;;;
2020/06/10 19:23:58;;;;;;;3.2;1.3;;;;;;;13;89.02539;932.2028;;;;
2020/06/10 19:27:04;;;;;;;2.6;1.5;;;;;;;12.95;87.9248;932.2112;;;;
2020/06/10 19:30:59;;;;;;;2.8;1.5;;;;;;;12.97;88.92773;932.1799;;;;
2020/06/10 19:32:10;;;;;;;1.9;1.3;;;;;;;13.02;88.22461;932.2294;;;;
2020/06/10 19:37:27;;;;;;;4.3;2.1;;;;;;;13.06;89.47266;932.2873;;;;
2020/06/10 19:39:14;;;;;;;4.2;2.3;;;;;;;13.06;89.12988;932.2505;;;;
2020/06/10 19:41:37;;;;;;;4.6;1.8;;;;;;;13.09;89.1123;932.3773;;;;
2020/06/10 19:44:08;;;;;;;2.6;1.3;;;;;;;13.05;88.62305;932.3538;;;;
2020/06/10 19:48:54;;;;;;;5.3;3.4;;;;;;;12.99;88.94238;932.4091;;;;
2020/06/10 19:53:43;;;;;;;2.7;1.5;;;;;;;12.85;89.54492;932.4719;;;;
2020/06/10 19:56:07;;;;;;;3.6;1.9;;;;;;;12.8;90.36133;932.4872;;;;
2020/06/10 19:59:06;;;;;;;2.6;1.2;;;;;;;12.81;89.75488;932.4288;;;;
2020/06/10 20:03:20;;;;;;;3.3;1.2;;;;;;;12.83;89.88477;932.4681;;;;
2020/06/10 20:08:44;;;;;;;2.4;1.5;;;;;;;12.83;90.0459;932.5935;;;;
2020/06/10 20:10:54;;;;;;;4.3;1.5;;;;;;;12.84;90.54297;932.5111;;;;
2020/06/10 20:13:12;;;;;;;3;1.5;;;;;;;12.89;90.1875;932.5698;;;;
2020/06/10 20:15:53;;;;;;;5.5;1.9;;;;;;;12.87;90.50293;932.6075;;;;